Time;durP1;ratioP1;P1;durP2;ratioP2;P2;SDS_P1;SDS_P2;PMS_P1;PMS_P2;Temp;Humidity;BMP_temperature;BMP_pressure;BME280_temperature;BME280_humidity;BME280_pressure;Samples;Min_cycle;Max_cycle;Signal;HPM_P1;HPM_P2
2023/05/27 00:01:10;;;;;;;;;;;;;;;;;;5049983;28;20342;-72
2023/05/27 00:03:37;;;;;;;;;;;;;;;;;;5047712;28;19929;-71
2023/05/27 00:06:04;;;;;;;;;;;;;;;;;;5047236;28;20450;-72
2023/05/27 00:08:31;;;;;;;;;;;;;;;;;;5051793;28;19925;-72
2023/05/27 00:10:58;;;;;;;;;;;;;;;;;;5051824;28;19924;-72
2023/05/27 00:13:25;;;;;;;;;;;;;;;;;;5050330;28;19957;-72
2023/05/27 00:15:52;;;;;;;;;;;;;;;;;;5050104;28;19932;-72
2023/05/27 00:18:20;;;;;;;;;;;;;;;;;;5049813;28;20015;-72
2023/05/27 00:20:48;;;;;;;;;;;;;;;;;;5049860;28;19932;-72
2023/05/27 00:23:14;;;;;;;;;;;;;;;;;;5049773;28;20086;-72
2023/05/27 00:25:41;;;;;;;;;;;;;;;;;;5051902;28;20039;-72
2023/05/27 00:28:08;;;;;;;;;;;;;;;;;;5046341;28;19963;-72
2023/05/27 00:30:35;;;;;;;;;;;;;;;;;;5047080;28;19924;-71
2023/05/27 00:33:02;;;;;;;;;;;;;;;;;;5050776;28;19928;-71
2023/05/27 00:35:29;;;;;;;;;;;;;;;;;;5050058;28;20008;-71
2023/05/27 00:37:56;;;;;;;;;;;;;;;;;;5056835;28;19924;-70
2023/05/27 00:40:23;;;;;;;;;;;;;;;;;;5050108;28;19928;-70
2023/05/27 00:42:50;;;;;;;;;;;;;;;;;;5049992;28;19925;-72
2023/05/27 00:45:17;;;;;;;;;;;;;;;;;;5051998;28;20016;-70
2023/05/27 00:47:45;;;;;;;;;;;;;;;;;;5052084;28;19966;-69
2023/05/27 00:50:11;;;;;;;;;;;;;;;;;;5050221;28;20277;-70
2023/05/27 00:52:38;;;;;;;;;;;;;;;;;;5051856;28;19967;-70
2023/05/27 00:55:05;;;;;;;;;;;;;;;;;;5051892;28;19931;-70
2023/05/27 00:57:33;;;;;;;;;;;;;;;;;;5051954;28;19931;-70
2023/05/27 01:00:00;;;;;;;;;;;;;;;;;;5051461;28;19931;-70
2023/05/27 01:02:26;;;;;;;;;;;;;;;;;;5049965;28;20032;-70
2023/05/27 01:04:53;;;;;;;;;;;;;;;;;;5048819;28;19931;-71
2023/05/27 01:07:20;;;;;;;;;;;;;;;;;;5040810;28;20023;-70
2023/05/27 01:09:47;;;;;;;;;;;;;;;;;;5048527;28;20019;-71
2023/05/27 01:12:14;;;;;;;;;;;;;;;;;;5050082;28;20434;-70
2023/05/27 01:14:41;;;;;;;;;;;;;;;;;;5052026;28;19925;-71
2023/05/27 01:17:09;;;;;;;;;;;;;;;;;;5048536;28;19925;-71
2023/05/27 01:19:36;;;;;;;;;;;;;;;;;;5048602;28;19963;-71
2023/05/27 01:22:03;;;;;;;;;;;;;;;;;;5050911;28;19931;-71
2023/05/27 01:24:30;;;;;;;;;;;;;;;;;;5049642;28;19925;-71
2023/05/27 01:27:01;;;;;;;;;;;;;;;;;;5049073;28;19924;-71
2023/05/27 01:29:28;;;;;;;;;;;;;;;;;;5061518;28;19930;-70
2023/05/27 01:31:55;;;;;;;;;;;;;;;;;;5052842;28;20291;-72
2023/05/27 01:34:22;;;;;;;;;;;;;;;;;;5053197;28;20106;-71
2023/05/27 01:36:49;;;;;;;;;;;;;;;;;;5051887;28;20003;-71
2023/05/27 01:39:16;;;;;;;;;;;;;;;;;;5051829;28;20016;-71
2023/05/27 01:41:43;;;;;;;;;;;;;;;;;;5052032;28;19928;-72
2023/05/27 01:44:09;;;;;;;;;;;;;;;;;;5054239;28;20004;-71
2023/05/27 01:46:36;;;;;;;;;;;;;;;;;;5064252;28;19967;-70
2023/05/27 01:49:03;;;;;;;;;;;;;;;;;;5053322;28;20031;-72
2023/05/27 01:51:30;;;;;;;;;;;;;;;;;;5053144;28;19931;-71
2023/05/27 01:53:57;;;;;;;;;;;;;;;;;;5053839;28;20396;-70
2023/05/27 01:56:24;;;;;;;;;;;;;;;;;;5052876;28;20471;-70
2023/05/27 01:58:51;;;;;;;;;;;;;;;;;;5051510;28;19925;-70
2023/05/27 02:01:18;;;;;;;;;;;;;;;;;;5052802;28;19924;-71
2023/05/27 02:03:45;;;;;;;;;;;;;;;;;;5054632;28;19935;-71
2023/05/27 02:06:12;;;;;;;;;;;;;;;;;;5052770;28;19931;-71
2023/05/27 02:08:39;;;;;;;;;;;;;;;;;;5051836;28;19925;-71
2023/05/27 02:11:06;;;;;;;;;;;;;;;;;;5051511;28;19924;-71
2023/05/27 02:13:33;;;;;;;;;;;;;;;;;;5052251;28;19931;-71
2023/05/27 02:16:00;;;;;;;;;;;;;;;;;;5053249;28;20015;-71
2023/05/27 02:18:27;;;;;;;;;;;;;;;;;;5051127;28;19925;-71
2023/05/27 02:20:54;;;;;;;;;;;;;;;;;;5053022;28;20364;-71
2023/05/27 02:23:21;;;;;;;;;;;;;;;;;;5053394;28;20401;-71
2023/05/27 02:25:49;;;;;;;;;;;;;;;;;;5052367;28;20447;-72
2023/05/27 02:28:16;;;;;;;;;;;;;;;;;;5053982;28;19931;-71
2023/05/27 02:30:43;;;;;;;;;;;;;;;;;;5053267;28;19979;-71
2023/05/27 02:33:10;;;;;;;;;;;;;;;;;;5053250;28;19960;-70
2023/05/27 02:35:37;;;;;;;;;;;;;;;;;;5051223;28;20479;-70
2023/05/27 02:38:04;;;;;;;;;;;;;;;;;;5053021;28;20027;-70
2023/05/27 02:40:31;;;;;;;;;;;;;;;;;;5052860;28;20015;-70
2023/05/27 02:42:57;;;;;;;;;;;;;;;;;;5050931;28;19925;-70
2023/05/27 02:45:25;;;;;;;;;;;;;;;;;;5053606;28;20283;-71
2023/05/27 02:47:52;;;;;;;;;;;;;;;;;;5052312;28;19944;-71
2023/05/27 02:50:18;;;;;;;;;;;;;;;;;;5050999;28;20003;-71
2023/05/27 02:52:45;;;;;;;;;;;;;;;;;;5052522;28;20011;-71
2023/05/27 02:55:12;;;;;;;;;;;;;;;;;;5068518;28;19924;-71
2023/05/27 02:57:39;;;;;;;;;;;;;;;;;;5058051;28;20011;-72
2023/05/27 03:00:08;;;;;;;;;;;;;;;;;;5052206;28;19925;-71
2023/05/27 03:02:35;;;;;;;;;;;;;;;;;;5051225;28;20447;-71
2023/05/27 03:05:02;;;;;;;;;;;;;;;;;;5049734;28;20434;-71
2023/05/27 03:07:29;;;;;;;;;;;;;;;;;;5053684;28;20018;-71
2023/05/27 03:09:56;;;;;;;;;;;;;;;;;;5053692;28;19924;-70
2023/05/27 03:12:23;;;;;;;;;;;;;;;;;;5052676;28;20028;-71
2023/05/27 03:14:50;;;;;;;;;;;;;;;;;;5053559;28;20027;-72
2023/05/27 03:17:17;;;;;;;;;;;;;;;;;;5053127;28;20038;-71
2023/05/27 03:19:44;;;;;;;;;;;;;;;;;;5051593;28;19932;-71
2023/05/27 03:22:11;;;;;;;;;;;;;;;;;;5052218;28;19933;-71
2023/05/27 03:24:38;;;;;;;;;;;;;;;;;;5050040;28;19924;-71
2023/05/27 03:27:05;;;;;;;;;;;;;;;;;;5053020;28;20011;-71
2023/05/27 03:29:32;;;;;;;;;;;;;;;;;;5053518;28;20011;-71
2023/05/27 03:31:59;;;;;;;;;;;;;;;;;;5051142;28;19925;-71
2023/05/27 03:34:26;;;;;;;;;;;;;;;;;;5049430;28;20040;-72
2023/05/27 03:36:53;;;;;;;;;;;;;;;;;;5051038;28;19931;-70
2023/05/27 03:39:20;;;;;;;;;;;;;;;;;;5050891;28;20003;-70
2023/05/27 03:41:47;;;;;;;;;;;;;;;;;;5052113;28;20008;-70
2023/05/27 03:44:14;;;;;;;;;;;;;;;;;;5052203;28;19931;-71
2023/05/27 03:46:41;;;;;;;;;;;;;;;;;;5051133;28;19978;-71
2023/05/27 03:49:08;;;;;;;;;;;;;;;;;;5047739;28;20012;-71
2023/05/27 03:51:35;;;;;;;;;;;;;;;;;;5052501;28;19924;-72
2023/05/27 03:54:02;;;;;;;;;;;;;;;;;;5051028;28;19948;-72
2023/05/27 03:56:29;;;;;;;;;;;;;;;;;;5046559;28;19929;-72
2023/05/27 03:58:56;;;;;;;;;;;;;;;;;;5050113;28;19972;-71
2023/05/27 04:01:23;;;;;;;;;;;;;;;;;;5053525;28;19925;-71
2023/05/27 04:03:50;;;;;;;;;;;;;;;;;;5055027;28;20000;-71
2023/05/27 04:06:17;;;;;;;;;;;;;;;;;;5050464;28;20007;-72
2023/05/27 04:08:44;;;;;;;;;;;;;;;;;;5051430;28;20091;-72
2023/05/27 04:11:11;;;;;;;;;;;;;;;;;;5051494;28;19925;-71
2023/05/27 04:13:37;;;;;;;;;;;;;;;;;;5050758;28;20051;-72
2023/05/27 04:16:05;;;;;;;;;;;;;;;;;;5049914;28;19932;-71
2023/05/27 04:18:32;;;;;;;;;;;;;;;;;;5052126;28;20345;-72
2023/05/27 04:20:59;;;;;;;;;;;;;;;;;;5050850;28;20007;-71
2023/05/27 04:23:26;;;;;;;;;;;;;;;;;;5049793;28;19925;-71
2023/05/27 04:25:53;;;;;;;;;;;;;;;;;;5049187;28;19924;-71
2023/05/27 04:28:21;;;;;;;;;;;;;;;;;;5051551;28;19924;-71
2023/05/27 04:30:50;;;;;;;;;;;;;;;;;;5049775;28;19925;-71
2023/05/27 04:33:17;;;;;;;;;;;;;;;;;;5051310;28;19929;-72
2023/05/27 04:35:44;;;;;;;;;;;;;;;;;;5051256;28;19960;-73
2023/05/27 04:38:15;;;;;;;;;;;;;;;;;;5050515;28;20299;-72
2023/05/27 04:40:44;;;;;;;;;;;;;;;;;;5052049;28;19925;-73
2023/05/27 04:43:12;;;;;;;;;;;;;;;;;;5050740;28;19978;-72
2023/05/27 04:45:39;;;;;;;;;;;;;;;;;;5051885;28;20602;-70
2023/05/27 04:48:08;;;;;;;;;;;;;;;;;;5050403;28;20204;-70
2023/05/27 04:50:35;;;;;;;;;;;;;;;;;;5051690;28;19971;-71
2023/05/27 04:53:02;;;;;;;;;;;;;;;;;;5057833;28;20312;-70
2023/05/27 04:55:29;;;;;;;;;;;;;;;;;;5072185;28;19978;-71
2023/05/27 04:57:57;;;;;;;;;;;;;;;;;;5070887;28;19924;-70
2023/05/27 05:00:33;;;;;;;;;;;;;;;;;;5035147;28;19932;-70
2023/05/27 05:03:00;;;;;;;;;;;;;;;;;;5048415;28;19967;-71
2023/05/27 05:05:27;;;;;;;;;;;;;;;;;;5053229;28;19932;-71
2023/05/27 05:07:54;;;;;;;;;;;;;;;;;;5054239;28;19927;-71
2023/05/27 05:10:21;;;;;;;;;;;;;;;;;;5054596;28;20020;-71
2023/05/27 05:12:48;;;;;;;;;;;;;;;;;;5055496;28;19925;-71
2023/05/27 05:15:15;;;;;;;;;;;;;;;;;;5045849;28;19948;-70
2023/05/27 05:17:42;;;;;;;;;;;;;;;;;;5050236;28;20035;-71
2023/05/27 05:20:09;;;;;;;;;;;;;;;;;;5052837;28;20015;-71
2023/05/27 05:22:36;;;;;;;;;;;;;;;;;;5054693;28;19924;-71
2023/05/27 05:25:04;;;;;;;;;;;;;;;;;;5053821;28;19975;-72
2023/05/27 05:27:31;;;;;;;;;;;;;;;;;;5059779;28;19925;-71
2023/05/27 05:29:58;;;;;;;;;;;;;;;;;;5052205;28;19924;-71
2023/05/27 05:32:25;;;;;;;;;;;;;;;;;;5052332;28;20015;-71
2023/05/27 05:34:52;;;;;;;;;;;;;;;;;;5052239;28;19931;-70
2023/05/27 05:37:19;;;;;;;;;;;;;;;;;;5051272;28;20348;-69
2023/05/27 05:39:46;;;;;;;;;;;;;;;;;;5053755;28;20351;-69
2023/05/27 05:42:13;;;;;;;;;;;;;;;;;;5054015;28;20011;-72
2023/05/27 05:44:39;;;;;;;;;;;;;;;;;;5055288;28;20294;-71
2023/05/27 05:47:06;;;;;;;;;;;;;;;;;;5053495;28;19928;-72
2023/05/27 05:49:33;;;;;;;;;;;;;;;;;;5055297;28;19925;-72
2023/05/27 05:52:00;;;;;;;;;;;;;;;;;;5055028;28;19925;-72
2023/05/27 05:54:27;;;;;;;;;;;;;;;;;;5055160;28;19931;-72
2023/05/27 05:56:54;;;;;;;;;;;;;;;;;;5054528;28;19925;-71
2023/05/27 05:59:21;;;;;;;;;;;;;;;;;;5054469;28;19925;-71
2023/05/27 06:01:48;;;;;;;;;;;;;;;;;;5053665;28;20008;-71
2023/05/27 06:04:16;;;;;;;;;;;;;;;;;;5053955;28;19950;-71
2023/05/27 06:06:43;;;;;;;;;;;;;;;;;;5055050;28;20008;-71
2023/05/27 06:09:10;;;;;;;;;;;;;;;;;;5054468;28;20302;-72
2023/05/27 06:11:37;;;;;;;;;;;;;;;;;;5054269;28;20414;-73
2023/05/27 06:14:04;;;;;;;;;;;;;;;;;;5054649;28;19971;-73
2023/05/27 06:16:31;;;;;;;;;;;;;;;;;;5050694;28;19931;-73
2023/05/27 06:18:58;;;;;;;;;;;;;;;;;;5052673;28;19979;-71
2023/05/27 06:21:25;;;;;;;;;;;;;;;;;;5050831;28;20035;-72
2023/05/27 06:23:52;;;;;;;;;;;;;;;;;;5052317;28;20012;-72
2023/05/27 06:26:19;;;;;;;;;;;;;;;;;;5044714;28;19935;-72
2023/05/27 06:28:46;;;;;;;;;;;;;;;;;;5052628;28;20051;-71
2023/05/27 06:31:13;;;;;;;;;;;;;;;;;;5046294;28;19931;-72
2023/05/27 06:33:40;;;;;;;;;;;;;;;;;;5046567;28;19933;-72
2023/05/27 06:36:07;;;;;;;;;;;;;;;;;;5049640;28;20359;-72
2023/05/27 06:38:34;;;;;;;;;;;;;;;;;;5055619;28;20298;-72
2023/05/27 06:41:01;;;;;;;;;;;;;;;;;;5054339;28;20289;-72
2023/05/27 06:43:28;;;;;;;;;;;;;;;;;;5051837;28;20388;-72
2023/05/27 06:45:55;;;;;;;;;;;;;;;;;;5049591;28;20015;-72
2023/05/27 06:48:22;;;;;;;;;;;;;;;;;;5050945;28;19931;-69
2023/05/27 06:50:49;;;;;;;;;;;;;;;;;;5049082;28;20032;-71
2023/05/27 06:53:16;;;;;;;;;;;;;;;;;;5052486;28;20420;-71
2023/05/27 06:55:43;;;;;;;;;;;;;;;;;;5049919;28;20012;-72
2023/05/27 06:58:10;;;;;;;;;;;;;;;;;;5053845;28;19925;-70
2023/05/27 07:00:37;;;;;;;;;;;;;;;;;;5037918;28;19925;-70
2023/05/27 07:03:04;;;;;;;;;;;;;;;;;;5047905;28;20015;-71
2023/05/27 07:05:31;;;;;;;;;;;;;;;;;;5044792;28;19931;-70
2023/05/27 07:07:58;;;;;;;;;;;;;;;;;;5050503;28;20250;-70
2023/05/27 07:10:25;;;;;;;;;;;;;;;;;;5053007;28;19924;-70
2023/05/27 07:12:52;;;;;;;;;;;;;;;;;;5052213;28;19931;-70
2023/05/27 07:15:19;;;;;;;;;;;;;;;;;;5051111;28;20015;-70
2023/05/27 07:17:46;;;;;;;;;;;;;;;;;;5050783;28;19925;-70
2023/05/27 07:20:13;;;;;;;;;;;;;;;;;;5052837;28;19925;-71
2023/05/27 07:22:40;;;;;;;;;;;;;;;;;;5053318;28;19925;-71
2023/05/27 07:25:06;;;;;;;;;;;;;;;;;;5050069;28;19964;-71
2023/05/27 07:27:33;;;;;;;;;;;;;;;;;;5062934;28;19931;-71
2023/05/27 07:30:00;;;;;;;;;;;;;;;;;;5050920;28;20388;-72
2023/05/27 07:32:28;;;;;;;;;;;;;;;;;;5046313;28;20351;-71
2023/05/27 07:34:55;;;;;;;;;;;;;;;;;;5050172;28;20084;-72
2023/05/27 07:37:23;;;;;;;;;;;;;;;;;;5054057;28;19975;-71
2023/05/27 07:39:50;;;;;;;;;;;;;;;;;;5051808;28;19932;-71
2023/05/27 07:42:17;;;;;;;;;;;;;;;;;;5052749;28;19948;-71
2023/05/27 07:44:44;;;;;;;;;;;;;;;;;;5052995;28;19993;-71
2023/05/27 07:47:11;;;;;;;;;;;;;;;;;;5041303;28;19967;-72
2023/05/27 07:49:38;;;;;;;;;;;;;;;;;;5044765;28;19936;-72
2023/05/27 07:52:06;;;;;;;;;;;;;;;;;;5043891;28;19933;-71
2023/05/27 07:54:33;;;;;;;;;;;;;;;;;;5049930;28;19924;-72
2023/05/27 07:57:00;;;;;;;;;;;;;;;;;;5051389;28;19967;-71
2023/05/27 07:59:29;;;;;;;;;;;;;;;;;;5049572;28;20023;-71
2023/05/27 08:01:55;;;;;;;;;;;;;;;;;;5040925;28;19925;-72
2023/05/27 08:04:23;;;;;;;;;;;;;;;;;;5066096;22;19943;-71
2023/05/27 08:06:50;;;;;;;;;;;;;;;;;;5079559;28;19967;-72
2023/05/27 08:09:17;;;;;;;;;;;;;;;;;;5066285;28;19924;-71
2023/05/27 08:11:44;;;;;;;;;;;;;;;;;;5064396;28;20023;-72
2023/05/27 08:14:12;;;;;;;;;;;;;;;;;;5064879;28;20291;-73
2023/05/27 08:16:39;;;;;;;;;;;;;;;;;;5063425;28;20027;-73
2023/05/27 08:19:06;;;;;;;;;;;;;;;;;;5069223;28;19925;-73
2023/05/27 08:21:33;;;;;;;;;;;;;;;;;;5069150;28;20011;-74
2023/05/27 08:24:02;;;;;;;;;;;;;;;;;;5069924;28;19978;-72
2023/05/27 08:26:29;;;;;;;;;;;;;;;;;;5065067;28;19962;-72
2023/05/27 08:28:56;;;;;;;;;;;;;;;;;;5066592;28;20023;-73
2023/05/27 08:31:23;;;;;;;;;;;;;;;;;;5058119;28;19983;-72
2023/05/27 08:33:51;;;;;;;;;;;;;;;;;;5066262;28;19930;-73
2023/05/27 08:36:19;;;;;;;;;;;;;;;;;;5062086;28;19924;-72
2023/05/27 08:38:46;;;;;;;;;;;;;;;;;;5063278;28;19924;-74
2023/05/27 08:41:13;;;;;;;;;;;;;;;;;;5075137;28;19925;-74
2023/05/27 08:43:40;;;;;;;;;;;;;;;;;;5074109;28;20236;-73
2023/05/27 08:46:07;;;;;;;;;;;;;;;;;;5073910;28;19924;-73
2023/05/27 08:48:34;;;;;;;;;;;;;;;;;;5070657;28;20015;-73
2023/05/27 08:51:01;;;;;;;;;;;;;;;;;;5080442;28;20003;-70
2023/05/27 08:53:28;;;;;;;;;;;;;;;;;;5069962;28;19940;-71
2023/05/27 08:55:55;;;;;;;;;;;;;;;;;;5067348;28;20018;-71
2023/05/27 08:58:22;;;;;;;;;;;;;;;;;;5065291;28;19931;-71
2023/05/27 09:00:49;;;;;;;;;;;;;;;;;;5071197;28;20226;-71
2023/05/27 09:03:16;;;;;;;;;;;;;;;;;;5063147;28;20413;-71
2023/05/27 09:05:43;;;;;;;;;;;;;;;;;;5071488;28;20041;-71
2023/05/27 09:08:10;;;;;;;;;;;;;;;;;;5069241;28;20015;-72
2023/05/27 09:10:37;;;;;;;;;;;;;;;;;;5059594;28;19968;-72
2023/05/27 09:13:04;;;;;;;;;;;;;;;;;;5071529;28;20452;-71
2023/05/27 09:15:31;;;;;;;;;;;;;;;;;;5080167;28;20442;-72
2023/05/27 09:17:58;;;;;;;;;;;;;;;;;;5073139;28;20358;-71
2023/05/27 09:20:25;;;;;;;;;;;;;;;;;;5072888;28;20020;-71
2023/05/27 09:22:52;;;;;;;;;;;;;;;;;;5069967;28;19978;-72
2023/05/27 09:25:19;;;;;;;;;;;;;;;;;;5072484;28;19924;-72
2023/05/27 09:27:46;;;;;;;;;;;;;;;;;;5073115;28;20594;-71
2023/05/27 09:30:13;;;;;;;;;;;;;;;;;;5072702;28;19936;-70
2023/05/27 09:32:40;;;;;;;;;;;;;;;;;;5075489;28;19935;-69
2023/05/27 09:35:08;;;;;;;;;;;;;;;;;;5070773;28;19928;-70
2023/05/27 09:37:35;;;;;;;;;;;;;;;;;;5080276;28;19931;-71
2023/05/27 09:40:04;;;;;;;;;;;;;;;;;;5076247;28;19924;-69
2023/05/27 09:42:31;;;;;;;;;;;;;;;;;;5075362;28;20554;-70
2023/05/27 09:44:58;;;;;;;;;;;;;;;;;;5073457;28;20298;-72
2023/05/27 09:47:25;;;;;;;;;;;;;;;;;;5070500;28;20016;-70
2023/05/27 09:49:52;;;;;;;;;;;;;;;;;;5072813;28;20433;-71
2023/05/27 09:52:20;;;;;;;;;;;;;;;;;;5071905;28;20375;-72
2023/05/27 09:54:47;;;;;;;;;;;;;;;;;;5073342;28;19925;-71
2023/05/27 09:57:14;;;;;;;;;;;;;;;;;;5072720;28;20018;-72
2023/05/27 09:59:41;;;;;;;;;;;;;;;;;;5072804;28;19925;-73
2023/05/27 10:02:09;;;;;;;;;;;;;;;;;;5062921;28;20023;-71
2023/05/27 10:04:36;;;;;;;;;;;;;;;;;;5063218;28;19971;-74
2023/05/27 10:07:03;;;;;;;;;;;;;;;;;;5066405;28;19932;-73
2023/05/27 10:09:31;;;;;;;;;;;;;;;;;;5073923;28;19960;-72
2023/05/27 10:11:58;;;;;;;;;;;;;;;;;;5077966;28;19924;-72
2023/05/27 10:14:25;;;;;;;;;;;;;;;;;;5072071;28;20007;-73
2023/05/27 10:16:52;;;;;;;;;;;;;;;;;;5080502;28;20011;-72
2023/05/27 10:19:18;;;;;;;;;;;;;;;;;;5073743;28;19975;-72
2023/05/27 10:21:45;;;;;;;;;;;;;;;;;;5059801;28;20380;-72
2023/05/27 10:24:12;;;;;;;;;;;;;;;;;;5071328;28;20394;-72
2023/05/27 10:26:40;;;;;;;;;;;;;;;;;;5072581;28;20008;-69
2023/05/27 10:29:07;;;;;;;;;;;;;;;;;;5069751;28;19925;-69
2023/05/27 10:31:34;;;;;;;;;;;;;;;;;;5074848;28;19931;-69
2023/05/27 10:34:01;;;;;;;;;;;;;;;;;;5073691;28;20402;-69
2023/05/27 10:36:28;;;;;;;;;;;;;;;;;;5069316;28;20418;-73
2023/05/27 10:38:56;;;;;;;;;;;;;;;;;;5074667;28;20416;-73
2023/05/27 10:41:23;;;;;;;;;;;;;;;;;;5070133;28;19925;-73
2023/05/27 10:43:50;;;;;;;;;;;;;;;;;;5069511;28;19924;-73
2023/05/27 10:46:17;;;;;;;;;;;;;;;;;;5069765;28;19924;-73
2023/05/27 10:48:45;;;;;;;;;;;;;;;;;;5068243;28;20012;-73
2023/05/27 10:51:12;;;;;;;;;;;;;;;;;;5079927;28;19938;-72
2023/05/27 10:53:39;;;;;;;;;;;;;;;;;;5068413;28;20019;-73
2023/05/27 10:56:06;;;;;;;;;;;;;;;;;;5066175;28;20019;-72
2023/05/27 10:58:33;;;;;;;;;;;;;;;;;;5066252;28;19924;-73
2023/05/27 11:01:00;;;;;;;;;;;;;;;;;;5072040;28;20011;-73
2023/05/27 11:03:27;;;;;;;;;;;;;;;;;;5071907;28;19966;-74
2023/05/27 11:05:54;;;;;;;;;;;;;;;;;;5067420;28;19931;-73
2023/05/27 11:08:21;;;;;;;;;;;;;;;;;;5067756;28;19940;-72
2023/05/27 11:10:48;;;;;;;;;;;;;;;;;;5076123;28;20007;-72
2023/05/27 11:13:15;;;;;;;;;;;;;;;;;;5070494;28;19974;-72
2023/05/27 11:15:42;;;;;;;;;;;;;;;;;;5081342;28;19924;-73
2023/05/27 11:18:09;;;;;;;;;;;;;;;;;;5072949;28;19932;-73
2023/05/27 11:20:36;;;;;;;;;;;;;;;;;;5070462;28;20020;-73
2023/05/27 11:23:03;;;;;;;;;;;;;;;;;;5066730;28;19982;-73
2023/05/27 11:25:30;;;;;;;;;;;;;;;;;;5068836;28;20418;-73
2023/05/27 11:27:57;;;;;;;;;;;;;;;;;;5066042;28;20703;-74
2023/05/27 11:30:24;;;;;;;;;;;;;;;;;;5075361;28;19924;-73
2023/05/27 11:32:51;;;;;;;;;;;;;;;;;;5070333;28;20015;-74
2023/05/27 11:35:18;;;;;;;;;;;;;;;;;;5072205;28;19935;-73
2023/05/27 11:37:45;;;;;;;;;;;;;;;;;;5063904;28;19982;-74
2023/05/27 11:40:13;;;;;;;;;;;;;;;;;;5070831;28;19925;-76
2023/05/27 11:42:40;;;;;;;;;;;;;;;;;;5072667;28;19939;-74
2023/05/27 11:45:07;;;;;;;;;;;;;;;;;;5063514;28;20605;-73
2023/05/27 11:47:34;;;;;;;;;;;;;;;;;;5071650;28;20037;-73
2023/05/27 11:50:01;;;;;;;;;;;;;;;;;;5076663;28;20018;-74
2023/05/27 11:52:28;;;;;;;;;;;;;;;;;;5083847;28;19967;-74
2023/05/27 11:54:55;;;;;;;;;;;;;;;;;;5066196;28;20353;-74
2023/05/27 11:57:22;;;;;;;;;;;;;;;;;;5069426;28;20019;-73
2023/05/27 11:59:49;;;;;;;;;;;;;;;;;;5068672;28;19928;-74
2023/05/27 12:02:16;;;;;;;;;;;;;;;;;;5068472;28;19924;-73
2023/05/27 12:04:43;;;;;;;;;;;;;;;;;;5067817;28;20605;-78
2023/05/27 12:07:10;;;;;;;;;;;;;;;;;;5069230;28;19928;-76
2023/05/27 12:09:37;;;;;;;;;;;;;;;;;;5068011;28;19928;-75
2023/05/27 12:12:04;;;;;;;;;;;;;;;;;;5068143;28;19959;-76
2023/05/27 12:14:32;;;;;;;;;;;;;;;;;;5066232;28;20428;-75
2023/05/27 12:16:59;;;;;;;;;;;;;;;;;;5066904;28;19971;-77
2023/05/27 12:19:26;;;;;;;;;;;;;;;;;;5065660;28;19924;-74
2023/05/27 12:21:53;;;;;;;;;;;;;;;;;;5070277;28;20396;-74
2023/05/27 12:24:20;;;;;;;;;;;;;;;;;;5068919;28;20302;-72
2023/05/27 12:26:47;;;;;;;;;;;;;;;;;;5058353;28;19932;-72
2023/05/27 12:29:14;;;;;;;;;;;;;;;;;;5058006;28;20393;-75
2023/05/27 12:31:41;;;;;;;;;;;;;;;;;;5071000;28;20446;-72
2023/05/27 12:34:08;;;;;;;;;;;;;;;;;;5058596;28;19939;-73
2023/05/27 12:36:36;;;;;;;;;;;;;;;;;;5072306;28;19963;-74
2023/05/27 12:39:04;;;;;;;;;;;;;;;;;;5070056;28;20042;-73
2023/05/27 12:41:31;;;;;;;;;;;;;;;;;;5065371;28;19931;-74
2023/05/27 12:43:59;;;;;;;;;;;;;;;;;;5068799;28;19925;-74
2023/05/27 12:46:26;;;;;;;;;;;;;;;;;;5072432;28;19930;-74
2023/05/27 12:48:53;;;;;;;;;;;;;;;;;;5071751;28;19936;-73
2023/05/27 12:51:19;;;;;;;;;;;;;;;;;;5068464;28;19931;-74
2023/05/27 12:53:46;;;;;;;;;;;;;;;;;;5071460;28;19942;-72
2023/05/27 12:56:13;;;;;;;;;;;;;;;;;;5068205;28;20023;-73
2023/05/27 12:58:41;;;;;;;;;;;;;;;;;;5072588;28;19960;-72
2023/05/27 13:01:08;;;;;;;;;;;;;;;;;;5085769;28;20510;-74
2023/05/27 13:03:35;;;;;;;;;;;;;;;;;;5070880;28;20033;-73
2023/05/27 13:06:02;;;;;;;;;;;;;;;;;;5073590;28;20353;-73
2023/05/27 13:08:29;;;;;;;;;;;;;;;;;;5076787;28;20281;-74
2023/05/27 13:10:56;;;;;;;;;;;;;;;;;;5069096;28;19925;-72
2023/05/27 13:13:23;;;;;;;;;;;;;;;;;;5069862;28;19951;-73
2023/05/27 13:15:50;;;;;;;;;;;;;;;;;;5064011;28;20294;-72
2023/05/27 13:18:17;;;;;;;;;;;;;;;;;;5070905;28;19924;-73
2023/05/27 13:20:44;;;;;;;;;;;;;;;;;;5072239;28;19967;-73
2023/05/27 13:23:11;;;;;;;;;;;;;;;;;;5071002;28;19935;-73
2023/05/27 13:25:39;;;;;;;;;;;;;;;;;;5069705;28;19974;-72
2023/05/27 13:28:06;;;;;;;;;;;;;;;;;;5078681;28;20011;-71
2023/05/27 13:30:32;;;;;;;;;;;;;;;;;;5078543;28;20016;-72
2023/05/27 13:32:59;;;;;;;;;;;;;;;;;;5073408;28;20370;-72
2023/05/27 13:35:26;;;;;;;;;;;;;;;;;;5083095;28;20007;-73
2023/05/27 13:37:54;;;;;;;;;;;;;;;;;;5074955;28;19967;-71
2023/05/27 13:40:21;;;;;;;;;;;;;;;;;;5069912;28;19947;-73
2023/05/27 13:42:48;;;;;;;;;;;;;;;;;;5073033;28;19966;-73
2023/05/27 13:45:15;;;;;;;;;;;;;;;;;;5074900;28;19924;-73
2023/05/27 13:47:44;;;;;;;;;;;;;;;;;;5073327;28;20050;-80
2023/05/27 13:50:11;;;;;;;;;;;;;;;;;;5074002;28;19956;-77
2023/05/27 13:52:38;;;;;;;;;;;;;;;;;;5073654;28;20023;-77
2023/05/27 13:55:05;;;;;;;;;;;;;;;;;;5073859;28;19967;-76
2023/05/27 13:57:32;;;;;;;;;;;;;;;;;;5074933;28;19976;-74
2023/05/27 13:59:59;;;;;;;;;;;;;;;;;;5074726;28;20015;-74
2023/05/27 14:02:26;;;;;;;;;;;;;;;;;;5073498;28;19931;-76
2023/05/27 14:04:53;;;;;;;;;;;;;;;;;;5075250;28;20015;-74
2023/05/27 14:07:20;;;;;;;;;;;;;;;;;;5073692;28;20011;-77
2023/05/27 14:09:47;;;;;;;;;;;;;;;;;;5074662;28;19925;-75
2023/05/27 14:12:14;;;;;;;;;;;;;;;;;;5077838;28;20018;-76
2023/05/27 14:14:41;;;;;;;;;;;;;;;;;;5073400;28;20044;-76
2023/05/27 14:17:08;;;;;;;;;;;;;;;;;;5079445;28;19924;-77
2023/05/27 14:19:35;;;;;;;;;;;;;;;;;;5088868;28;20333;-76
2023/05/27 14:22:02;;;;;;;;;;;;;;;;;;5065130;28;19924;-77
2023/05/27 14:24:29;;;;;;;;;;;;;;;;;;5068679;28;20019;-78
2023/05/27 14:26:56;;;;;;;;;;;;;;;;;;5070912;28;20015;-79
2023/05/27 14:29:23;;;;;;;;;;;;;;;;;;5068906;28;19929;-78
2023/05/27 14:31:50;;;;;;;;;;;;;;;;;;5080744;28;20325;-75
2023/05/27 14:34:17;;;;;;;;;;;;;;;;;;5080824;28;19970;-78
2023/05/27 14:36:44;;;;;;;;;;;;;;;;;;5073640;28;19924;-77
2023/05/27 14:39:12;;;;;;;;;;;;;;;;;;5073825;28;20035;-77
2023/05/27 14:41:39;;;;;;;;;;;;;;;;;;5070240;28;19924;-76
2023/05/27 14:44:06;;;;;;;;;;;;;;;;;;5064674;28;20015;-78
2023/05/27 14:46:33;;;;;;;;;;;;;;;;;;5066590;28;19925;-77
2023/05/27 14:49:00;;;;;;;;;;;;;;;;;;5088551;28;20558;-78
2023/05/27 14:51:26;;;;;;;;;;;;;;;;;;5073634;28;19924;-77
2023/05/27 14:53:53;;;;;;;;;;;;;;;;;;5068202;28;19928;-77
2023/05/27 14:56:21;;;;;;;;;;;;;;;;;;5067127;28;20019;-78
2023/05/27 14:58:48;;;;;;;;;;;;;;;;;;5066379;28;19924;-77
2023/05/27 15:01:15;;;;;;;;;;;;;;;;;;5075450;28;20287;-76
2023/05/27 15:03:42;;;;;;;;;;;;;;;;;;5077598;28;19928;-76
2023/05/27 15:06:10;;;;;;;;;;;;;;;;;;5082743;28;20002;-77
2023/05/27 15:08:37;;;;;;;;;;;;;;;;;;5074998;28;19942;-76
2023/05/27 15:11:04;;;;;;;;;;;;;;;;;;5069618;28;19974;-76
2023/05/27 15:13:31;;;;;;;;;;;;;;;;;;5075720;28;20022;-76
2023/05/27 15:15:58;;;;;;;;;;;;;;;;;;5067697;28;20027;-76
2023/05/27 15:18:25;;;;;;;;;;;;;;;;;;5070096;28;19931;-75
2023/05/27 15:20:52;;;;;;;;;;;;;;;;;;5061861;28;20023;-74
2023/05/27 15:23:19;;;;;;;;;;;;;;;;;;5071273;28;20030;-75
2023/05/27 15:25:46;;;;;;;;;;;;;;;;;;5071631;28;20439;-74
2023/05/27 15:28:13;;;;;;;;;;;;;;;;;;5072644;28;19955;-75
2023/05/27 15:30:40;;;;;;;;;;;;;;;;;;5072716;28;19975;-75
2023/05/27 15:33:07;;;;;;;;;;;;;;;;;;5071836;28;20428;-74
2023/05/27 15:35:34;;;;;;;;;;;;;;;;;;5071357;28;20508;-74
2023/05/27 15:38:01;;;;;;;;;;;;;;;;;;5058977;28;19956;-74
2023/05/27 15:40:28;;;;;;;;;;;;;;;;;;5073119;28;19924;-75
2023/05/27 15:42:55;;;;;;;;;;;;;;;;;;5070133;28;19925;-75
2023/05/27 15:45:22;;;;;;;;;;;;;;;;;;5072245;28;19924;-75
2023/05/27 15:47:49;;;;;;;;;;;;;;;;;;5072404;28;19924;-75
2023/05/27 15:50:16;;;;;;;;;;;;;;;;;;5071990;28;19925;-74
2023/05/27 15:52:43;;;;;;;;;;;;;;;;;;5073002;28;19974;-75
2023/05/27 15:55:10;;;;;;;;;;;;;;;;;;5069722;28;19925;-75
2023/05/27 15:57:37;;;;;;;;;;;;;;;;;;5074928;28;19929;-75
2023/05/27 16:00:04;;;;;;;;;;;;;;;;;;5070080;28;19931;-76
2023/05/27 16:02:31;;;;;;;;;;;;;;;;;;5063844;28;20137;-75
2023/05/27 16:04:58;;;;;;;;;;;;;;;;;;5081333;28;19960;-75
2023/05/27 16:07:29;;;;;;;;;;;;;;;;;;5081874;28;19924;-75
2023/05/27 16:09:57;;;;;;;;;;;;;;;;;;5073358;28;20217;-79
2023/05/27 16:12:24;;;;;;;;;;;;;;;;;;5077745;28;19928;-78
2023/05/27 16:14:51;;;;;;;;;;;;;;;;;;5056967;28;20350;-79
2023/05/27 16:17:18;;;;;;;;;;;;;;;;;;5072282;28;19990;-76
2023/05/27 16:19:45;;;;;;;;;;;;;;;;;;5068588;28;20011;-75
2023/05/27 16:22:12;;;;;;;;;;;;;;;;;;5077233;28;19986;-75
2023/05/27 16:24:39;;;;;;;;;;;;;;;;;;5072576;28;20003;-76
2023/05/27 16:27:06;;;;;;;;;;;;;;;;;;5060895;28;19924;-74
2023/05/27 16:29:33;;;;;;;;;;;;;;;;;;5074111;28;20319;-74
2023/05/27 16:32:00;;;;;;;;;;;;;;;;;;5070278;28;19932;-76
2023/05/27 16:34:28;;;;;;;;;;;;;;;;;;5066937;28;19971;-74
2023/05/27 16:36:55;;;;;;;;;;;;;;;;;;5084376;28;19948;-75
2023/05/27 16:39:22;;;;;;;;;;;;;;;;;;5059999;28;20011;-76
2023/05/27 16:41:50;;;;;;;;;;;;;;;;;;5069931;28;20023;-75
2023/05/27 16:44:17;;;;;;;;;;;;;;;;;;5063588;28;19936;-75